Terminal Aerodrome Forecast
Issued by NWS Twin Cities, MN

Home | Current Version | Previous Version | Text Only | Print | Product List | Glossary Off
Versions: 1 2 3 4 5 6 7 8 9 10 11 12 13 14 15 16 17 18 19 20 21 22 23 24 25 26 27 28 29 30 31 32

000
FTUS43 KMPX 312300 RRA
TAFMSP
TAF
KMSP 312340Z 0100/0206 18015G22KT P6SM SCT045 BKN110
      TEMPO 0101/0102 -SHRA BKN045 OVC100
     FM010200 19008KT P6SM VCTS SCT020 BKN070CB
      TEMPO 0102/0106 3SM TSRA OVC020CB
     FM010600 21006KT 6SM -SHRA BR SCT015 OVC025
     FM011000 30008KT 5SM BR OVC015
     FM011600 30012KT P6SM SCT040 BKN250=

USA.gov is the U.S. government's official web portal to all federal, state and local government web resources and services.